PWSweather.com
Personal Weather Stations
Station Observations
SPARKSRC
St. Petersburg, FL 33716

St. Petersburg, FL 33716

Lat: 27.876101, Lon: -82.657194

Elevation: 13

Station Type: Zephyr PWS-1000TD

High Low Average
Temperature 71.1°F21.7°F 53.8°F12.1°F 63.3°F17.4°F
Dew Point 70.8°F21.6°F 50.3°F10.2°F 60.1°F15.6°F
Winds 23.5 mph W37.8 mph W 1.6 mph 2.6 mph 10.3 mph 16.6 mph
Wind Gusts 33.6 mph54.1 mph 5.4 mph8.7 mph 19.6 mph31.5 mph
Humidity 99% 71% 89%
Pressure 30.01 in1016.30 in 29.77 in1008.10 in -
Precipitation 12.06 in306.30 in - -
Hour Temp Dew Point Humidity Winds Wind Gusts Pressure Precip Precip Rate Daily Precip Total
12:00 AM 71.1°F21.7°C 70.8°F21.6°C 99% 14.5 mph S23.3 kmh S 24.4 mph39.3 kmh 29.81 in1009.5 mb 0.07 in1.8 mm 0.00 in/hr0.0 mm/hr 0.59 in15.0 mm
12:05 AM 71.1°F21.7°C 70.8°F21.6°C 99% 13.0 mph S20.9 kmh S 24.4 mph39.3 kmh 29.81 in1009.5 mb 0.07 in1.8 mm 0.00 in/hr0.0 mm/hr 0.07 in1.8 mm
12:10 AM 70.9°F21.6°C 70.6°F21.4°C 99% 10.7 mph S17.2 kmh S 21.3 mph34.3 kmh 29.80 in1009.1 mb 0.06 in1.5 mm 0.00 in/hr0.0 mm/hr 0.07 in1.8 mm
12:15 AM 70.9°F21.6°C 70.6°F21.4°C 99% 12.1 mph SSE19.5 kmh SSE 21.3 mph34.3 kmh 29.81 in1009.5 mb 0.06 in1.5 mm 0.00 in/hr0.0 mm/hr 0.07 in1.8 mm
12:20 AM 70.9°F21.6°C 70.6°F21.4°C 99% 12.1 mph S19.5 kmh S 18.3 mph29.5 kmh 29.81 in1009.5 mb 0.06 in1.5 mm 0.00 in/hr0.0 mm/hr 0.07 in1.8 mm
12:25 AM 70.9°F21.6°C 70.6°F21.4°C 99% 13.6 mph S21.9 kmh S 16.8 mph27.0 kmh 29.82 in1009.8 mb 0.05 in1.3 mm 0.00 in/hr0.0 mm/hr 0.07 in1.8 mm
12:30 AM 71.1°F21.7°C 70.8°F21.6°C 99% 11.4 mph S18.3 kmh S 18.3 mph29.5 kmh 29.82 in1009.8 mb 0.04 in1.0 mm 0.00 in/hr0.0 mm/hr 0.01 in0.3 mm
12:35 AM 70.9°F21.6°C 70.6°F21.4°C 99% 10.7 mph S17.2 kmh S 18.3 mph29.5 kmh 29.82 in1009.8 mb 0.02 in0.5 mm 0.00 in/hr0.0 mm/hr 0.01 in0.3 mm
12:50 AM 70.5°F21.4°C 70.3°F21.3°C 99% 13.0 mph S20.9 kmh S 24.4 mph39.3 kmh 29.82 in1009.8 mb 0.12 in3.0 mm 0.40 in/hr10.2 mm/hr 0.12 in3.0 mm
12:55 AM 70.2°F21.2°C 69.9°F21.1°C 99% 10.7 mph S17.2 kmh S 20.6 mph33.2 kmh 29.83 in1010.2 mb 0.14 in3.6 mm 0.24 in/hr6.1 mm/hr 0.14 in3.6 mm
01:00 AM 70.0°F21.1°C 69.7°F20.9°C 99% 9.8 mph S15.8 kmh S 20.6 mph33.2 kmh 29.82 in1009.8 mb 0.17 in4.3 mm 0.03 in/hr0.8 mm/hr 0.17 in4.3 mm
01:05 AM 70.0°F21.1°C 69.7°F20.9°C 99% 9.2 mph SSW14.8 kmh SSW 16.8 mph27.0 kmh 29.81 in1009.5 mb 0.17 in4.3 mm 0.00 in/hr0.0 mm/hr 0.17 in4.3 mm
01:10 AM 70.0°F21.1°C 69.7°F20.9°C 99% 13.6 mph SW21.9 kmh SW 19.0 mph30.6 kmh 29.81 in1009.5 mb 0.19 in4.8 mm 0.24 in/hr6.1 mm/hr 0.19 in4.8 mm
01:15 AM 70.3°F21.3°C 70.1°F21.2°C 99% 14.5 mph S23.3 kmh S 22.1 mph35.6 kmh 29.81 in1009.5 mb 0.20 in5.1 mm 0.12 in/hr3.0 mm/hr 0.20 in5.1 mm
01:20 AM 70.3°F21.3°C 70.1°F21.2°C 99% 17.4 mph S28.0 kmh S 26.6 mph42.8 kmh 29.81 in1009.5 mb 0.21 in5.3 mm 0.12 in/hr3.0 mm/hr 0.21 in5.3 mm
01:25 AM 70.3°F21.3°C 70.1°F21.2°C 99% 12.1 mph S19.5 kmh S 26.6 mph42.8 kmh 29.81 in1009.5 mb 0.27 in6.9 mm 0.72 in/hr18.3 mm/hr 0.27 in6.9 mm
01:30 AM 70.2°F21.2°C 69.9°F21.1°C 99% 9.2 mph SW14.8 kmh SW 26.6 mph42.8 kmh 29.81 in1009.5 mb 0.27 in6.9 mm 0.00 in/hr0.0 mm/hr 0.28 in7.1 mm
01:35 AM 70.2°F21.2°C 69.9°F21.1°C 99% 13.0 mph SW20.9 kmh SW 21.3 mph34.3 kmh 29.80 in1009.1 mb 0.31 in7.9 mm 0.48 in/hr12.2 mm/hr 0.32 in8.1 mm
01:40 AM 70.3°F21.3°C 70.1°F21.2°C 99% 14.5 mph SW23.3 kmh SW 25.9 mph41.7 kmh 29.80 in1009.1 mb 0.31 in7.9 mm 0.00 in/hr0.0 mm/hr 0.33 in8.4 mm
01:45 AM 70.3°F21.3°C 70.1°F21.2°C 99% 15.2 mph SW24.5 kmh SW 25.9 mph41.7 kmh 29.82 in1009.8 mb 0.30 in7.6 mm 0.00 in/hr0.0 mm/hr 0.35 in8.9 mm
01:50 AM 70.2°F21.2°C 69.9°F21.1°C 99% 18.3 mph SSW29.5 kmh SSW 28.2 mph45.4 kmh 29.82 in1009.8 mb 0.27 in6.9 mm 0.00 in/hr0.0 mm/hr 0.39 in9.9 mm
01:55 AM 70.0°F21.1°C 69.7°F20.9°C 99% 13.6 mph SSW21.9 kmh SSW 28.2 mph45.4 kmh 29.82 in1009.8 mb 0.27 in6.9 mm 0.00 in/hr0.0 mm/hr 0.41 in10.4 mm
02:00 AM 69.8°F21.0°C 69.5°F20.8°C 99% 13.6 mph SSW21.9 kmh SSW 27.3 mph43.9 kmh 29.82 in1009.8 mb 0.25 in6.4 mm 0.00 in/hr0.0 mm/hr 0.41 in10.4 mm
02:05 AM 69.8°F21.0°C 69.5°F20.8°C 99% 15.2 mph S24.5 kmh S 19.7 mph31.7 kmh 29.81 in1009.5 mb 0.26 in6.6 mm 0.12 in/hr3.0 mm/hr 0.43 in10.9 mm
02:10 AM 69.6°F20.9°C 69.4°F20.8°C 99% 14.5 mph S23.3 kmh S 19.7 mph31.7 kmh 29.80 in1009.1 mb 0.24 in6.1 mm 0.00 in/hr0.0 mm/hr 0.43 in10.9 mm
02:15 AM 69.6°F20.9°C 69.4°F20.8°C 99% 13.6 mph S21.9 kmh S 22.8 mph36.7 kmh 29.80 in1009.1 mb 0.24 in6.1 mm 0.00 in/hr0.0 mm/hr 0.44 in11.2 mm
02:20 AM 69.6°F20.9°C 69.4°F20.8°C 99% 15.2 mph S24.5 kmh S 22.8 mph36.7 kmh 29.80 in1009.1 mb 0.22 in5.6 mm 0.00 in/hr0.0 mm/hr 0.44 in11.2 mm
02:25 AM 69.4°F20.8°C 69.2°F20.7°C 99% 15.2 mph S24.5 kmh S 25.9 mph41.7 kmh 29.80 in1009.1 mb 0.17 in4.3 mm 0.00 in/hr0.0 mm/hr 0.44 in11.2 mm
02:30 AM 69.3°F20.7°C 69.0°F20.6°C 99% 13.6 mph S21.9 kmh S 25.9 mph41.7 kmh 29.80 in1009.1 mb 0.14 in3.6 mm 0.00 in/hr0.0 mm/hr 0.44 in11.2 mm
02:35 AM 69.3°F20.7°C 69.0°F20.6°C 99% 14.5 mph S23.3 kmh S 22.1 mph35.6 kmh 29.80 in1009.1 mb 0.12 in3.0 mm 0.00 in/hr0.0 mm/hr 0.44 in11.2 mm
02:40 AM 69.3°F20.7°C 69.0°F20.6°C 99% 13.6 mph S21.9 kmh S 19.7 mph31.7 kmh 29.80 in1009.1 mb 0.11 in2.8 mm 0.00 in/hr0.0 mm/hr 0.44 in11.2 mm
02:45 AM 69.4°F20.8°C 69.2°F20.7°C 99% 10.7 mph S17.2 kmh S 19.7 mph31.7 kmh 29.79 in1008.8 mb 0.08 in2.0 mm 0.00 in/hr0.0 mm/hr 0.44 in11.2 mm
02:50 AM 69.3°F20.7°C 69.0°F20.6°C 99% 12.1 mph S19.5 kmh S 16.8 mph27.0 kmh 29.79 in1008.8 mb 0.05 in1.3 mm 0.00 in/hr0.0 mm/hr 0.44 in11.2 mm
02:55 AM 69.4°F20.8°C 69.2°F20.7°C 99% 9.2 mph S14.8 kmh S 16.8 mph27.0 kmh 29.79 in1008.8 mb 0.02 in0.5 mm 0.00 in/hr0.0 mm/hr 0.44 in11.2 mm
03:00 AM 69.1°F20.6°C 68.8°F20.4°C 99% 11.4 mph S18.3 kmh S 16.8 mph27.0 kmh 29.79 in1008.8 mb 0.02 in0.5 mm 0.00 in/hr0.0 mm/hr 0.44 in11.2 mm
03:05 AM 69.3°F20.7°C 69.0°F20.6°C 99% 10.7 mph S17.2 kmh S 15.9 mph25.6 kmh 29.79 in1008.8 mb 0.01 in0.3 mm 0.00 in/hr0.0 mm/hr 0.44 in11.2 mm
03:10 AM 69.3°F20.7°C 69.0°F20.6°C 99% 9.8 mph S15.8 kmh S 15.9 mph25.6 kmh 29.78 in1008.5 mb 0.01 in0.3 mm 0.00 in/hr0.0 mm/hr 0.44 in11.2 mm
03:15 AM 69.3°F20.7°C 69.0°F20.6°C 99% 9.8 mph S15.8 kmh S 16.8 mph27.0 kmh 29.78 in1008.5 mb 0.00 in0.0 mm 0.00 in/hr0.0 mm/hr 0.44 in11.2 mm
03:20 AM 69.1°F20.6°C 68.8°F20.4°C 99% 13.0 mph S20.9 kmh S 16.8 mph27.0 kmh 29.79 in1008.8 mb 0.00 in0.0 mm 0.00 in/hr0.0 mm/hr 0.44 in11.2 mm
03:25 AM 69.3°F20.7°C 69.0°F20.6°C 99% 10.7 mph S17.2 kmh S 16.8 mph27.0 kmh 29.79 in1008.8 mb 0.00 in0.0 mm 0.00 in/hr0.0 mm/hr 0.44 in11.2 mm
03:30 AM 69.3°F20.7°C 69.0°F20.6°C 99% 13.0 mph S20.9 kmh S 16.8 mph27.0 kmh 29.79 in1008.8 mb 0.00 in0.0 mm 0.00 in/hr0.0 mm/hr 0.44 in11.2 mm
03:35 AM 69.4°F20.8°C 69.2°F20.7°C 99% 11.4 mph S18.3 kmh S 15.2 mph24.5 kmh 29.79 in1008.8 mb 0.00 in0.0 mm 0.00 in/hr0.0 mm/hr 0.44 in11.2 mm
03:40 AM 69.3°F20.7°C 69.0°F20.6°C 99% 9.2 mph S14.8 kmh S 15.9 mph25.6 kmh 29.79 in1008.8 mb 0.00 in0.0 mm 0.00 in/hr0.0 mm/hr 0.44 in11.2 mm
03:45 AM 69.4°F20.8°C 69.2°F20.7°C 99% 11.4 mph S18.3 kmh S 17.4 mph28.0 kmh 29.79 in1008.8 mb 0.00 in0.0 mm 0.00 in/hr0.0 mm/hr 0.44 in11.2 mm
03:50 AM 69.6°F20.9°C 69.4°F20.8°C 99% 11.4 mph S18.3 kmh S 17.4 mph28.0 kmh 29.78 in1008.5 mb 0.00 in0.0 mm 0.00 in/hr0.0 mm/hr 0.44 in11.2 mm
03:55 AM 69.6°F20.9°C 69.4°F20.8°C 99% 9.2 mph S14.8 kmh S 15.9 mph25.6 kmh 29.78 in1008.5 mb 0.00 in0.0 mm 0.00 in/hr0.0 mm/hr 0.44 in11.2 mm
04:00 AM 70.0°F21.1°C 69.7°F20.9°C 99% 13.6 mph S21.9 kmh S 15.9 mph25.6 kmh 29.78 in1008.5 mb 0.00 in0.0 mm 0.00 in/hr0.0 mm/hr 0.44 in11.2 mm
04:05 AM 70.0°F21.1°C 69.7°F20.9°C 99% 13.0 mph S20.9 kmh S 17.4 mph28.0 kmh 29.78 in1008.5 mb 0.00 in0.0 mm 0.00 in/hr0.0 mm/hr 0.44 in11.2 mm
04:10 AM 70.2°F21.2°C 69.9°F21.1°C 99% 12.1 mph SSW19.5 kmh SSW 18.3 mph29.5 kmh 29.78 in1008.5 mb 0.00 in0.0 mm 0.00 in/hr0.0 mm/hr 0.44 in11.2 mm
04:15 AM 70.2°F21.2°C 69.9°F21.1°C 99% 9.2 mph SW14.8 kmh SW 18.3 mph29.5 kmh 29.78 in1008.5 mb 0.00 in0.0 mm 0.00 in/hr0.0 mm/hr 0.44 in11.2 mm
04:20 AM 70.0°F21.1°C 69.7°F20.9°C 99% 8.3 mph SSW13.4 kmh SSW 15.2 mph24.5 kmh 29.77 in1008.1 mb 0.00 in0.0 mm 0.00 in/hr0.0 mm/hr 0.44 in11.2 mm
04:25 AM 70.2°F21.2°C 69.9°F21.1°C 99% 9.8 mph S15.8 kmh S 15.2 mph24.5 kmh 29.77 in1008.1 mb 0.00 in0.0 mm 0.00 in/hr0.0 mm/hr 0.44 in11.2 mm
04:30 AM 70.2°F21.2°C 69.9°F21.1°C 99% 11.4 mph SSW18.3 kmh SSW 16.8 mph27.0 kmh 29.78 in1008.5 mb 0.00 in0.0 mm 0.00 in/hr0.0 mm/hr 0.44 in11.2 mm
04:35 AM 70.2°F21.2°C 69.9°F21.1°C 99% 11.4 mph SW18.3 kmh SW 16.8 mph27.0 kmh 29.78 in1008.5 mb 0.00 in0.0 mm 0.00 in/hr0.0 mm/hr 0.44 in11.2 mm
04:40 AM 70.2°F21.2°C 69.9°F21.1°C 99% 12.1 mph SW19.5 kmh SW 17.4 mph28.0 kmh 29.78 in1008.5 mb 0.00 in0.0 mm 0.00 in/hr0.0 mm/hr 0.44 in11.2 mm
04:45 AM 70.2°F21.2°C 69.9°F21.1°C 99% 11.4 mph SW18.3 kmh SW 18.3 mph29.5 kmh 29.78 in1008.5 mb 0.00 in0.0 mm 0.00 in/hr0.0 mm/hr 0.44 in11.2 mm
04:50 AM 70.2°F21.2°C 69.9°F21.1°C 99% 14.5 mph SW23.3 kmh SW 19.7 mph31.7 kmh 29.78 in1008.5 mb 0.00 in0.0 mm 0.00 in/hr0.0 mm/hr 0.44 in11.2 mm
04:55 AM 70.2°F21.2°C 69.9°F21.1°C 99% 11.4 mph SW18.3 kmh SW 19.7 mph31.7 kmh 29.78 in1008.5 mb 0.00 in0.0 mm 0.00 in/hr0.0 mm/hr 0.44 in11.2 mm
05:00 AM 70.2°F21.2°C 69.9°F21.1°C 99% 10.7 mph SW17.2 kmh SW 21.3 mph34.3 kmh 29.79 in1008.8 mb 0.00 in0.0 mm 0.00 in/hr0.0 mm/hr 0.44 in11.2 mm
05:05 AM 70.3°F21.3°C 70.1°F21.2°C 99% 9.8 mph SW15.8 kmh SW 21.3 mph34.3 kmh 29.80 in1009.1 mb 0.00 in0.0 mm 0.00 in/hr0.0 mm/hr 0.44 in11.2 mm
05:10 AM 68.9°F20.5°C 68.6°F20.3°C 99% 15.2 mph WSW24.5 kmh WSW 22.1 mph35.6 kmh 29.81 in1009.5 mb 0.02 in0.5 mm 0.24 in/hr6.1 mm/hr 0.46 in11.7 mm
05:15 AM 68.7°F20.4°C 68.5°F20.3°C 99% 9.2 mph WSW14.8 kmh WSW 22.1 mph35.6 kmh 29.81 in1009.5 mb 0.04 in1.0 mm 0.24 in/hr6.1 mm/hr 0.47 in11.9 mm
05:20 AM 68.2°F20.1°C 67.9°F19.9°C 99% 9.8 mph W15.8 kmh W 22.1 mph35.6 kmh 29.81 in1009.5 mb 0.05 in1.3 mm 0.12 in/hr3.0 mm/hr 0.48 in12.2 mm
05:25 AM 68.0°F20.0°C 67.7°F19.8°C 99% 10.7 mph W17.2 kmh W 19.7 mph31.7 kmh 29.81 in1009.5 mb 0.05 in1.3 mm 0.00 in/hr0.0 mm/hr 0.48 in12.2 mm
05:30 AM 67.6°F19.8°C 67.4°F19.7°C 99% 9.8 mph W15.8 kmh W 22.1 mph35.6 kmh 29.81 in1009.5 mb 0.06 in1.5 mm 0.12 in/hr3.0 mm/hr 0.50 in12.7 mm
05:35 AM 67.3°F19.6°C 67.0°F19.4°C 99% 14.5 mph WNW23.3 kmh WNW 24.4 mph39.3 kmh 29.81 in1009.5 mb 0.06 in1.5 mm 0.00 in/hr0.0 mm/hr 0.50 in12.7 mm
05:40 AM 66.7°F19.3°C 66.5°F19.2°C 99% 11.4 mph W18.3 kmh W 25.1 mph40.4 kmh 29.81 in1009.5 mb 0.06 in1.5 mm 0.00 in/hr0.0 mm/hr 0.50 in12.7 mm
05:45 AM 66.6°F19.2°C 66.3°F19.1°C 99% 14.5 mph W23.3 kmh W 25.1 mph40.4 kmh 29.82 in1009.8 mb 0.06 in1.5 mm 0.00 in/hr0.0 mm/hr 0.50 in12.7 mm
05:50 AM 66.4°F19.1°C 66.1°F18.9°C 99% 12.1 mph W19.5 kmh W 24.4 mph39.3 kmh 29.82 in1009.8 mb 0.06 in1.5 mm 0.00 in/hr0.0 mm/hr 0.50 in12.7 mm
05:55 AM 66.2°F19.0°C 65.9°F18.8°C 99% 13.0 mph W20.9 kmh W 19.7 mph31.7 kmh 29.82 in1009.8 mb 0.06 in1.5 mm 0.00 in/hr0.0 mm/hr 0.50 in12.7 mm
06:00 AM 66.0°F18.9°C 65.8°F18.8°C 99% 12.1 mph W19.5 kmh W 22.1 mph35.6 kmh 29.83 in1010.2 mb 0.06 in1.5 mm 0.00 in/hr0.0 mm/hr 0.50 in12.7 mm
06:05 AM 66.0°F18.9°C 65.8°F18.8°C 99% 7.6 mph W12.2 kmh W 22.1 mph35.6 kmh 29.84 in1010.5 mb 0.06 in1.5 mm 0.00 in/hr0.0 mm/hr 0.50 in12.7 mm
06:10 AM 65.7°F18.7°C 65.4°F18.6°C 99% 14.5 mph W23.3 kmh W 25.1 mph40.4 kmh 29.84 in1010.5 mb 0.05 in1.3 mm 0.00 in/hr0.0 mm/hr 0.51 in13.0 mm
06:15 AM 65.5°F18.6°C 65.2°F18.4°C 99% 15.9 mph W25.6 kmh W 28.9 mph46.5 kmh 29.83 in1010.2 mb 0.04 in1.0 mm 0.00 in/hr0.0 mm/hr 0.51 in13.0 mm
06:20 AM 65.1°F18.4°C 64.9°F18.3°C 99% 10.7 mph W17.2 kmh W 29.8 mph48.0 kmh 29.84 in1010.5 mb 0.02 in0.5 mm 0.00 in/hr0.0 mm/hr 0.51 in13.0 mm
06:25 AM 64.9°F18.3°C 64.7°F18.2°C 99% 13.0 mph W20.9 kmh W 29.8 mph48.0 kmh 29.84 in1010.5 mb 0.04 in1.0 mm 0.24 in/hr6.1 mm/hr 0.52 in13.2 mm
06:30 AM 64.9°F18.3°C 64.7°F18.2°C 99% 11.4 mph WNW18.3 kmh WNW 21.3 mph34.3 kmh 29.84 in1010.5 mb 0.04 in1.0 mm 0.00 in/hr0.0 mm/hr 0.53 in13.5 mm
06:35 AM 64.9°F18.3°C 64.7°F18.2°C 99% 9.8 mph W15.8 kmh W 20.6 mph33.2 kmh 29.85 in1010.8 mb 0.04 in1.0 mm 0.00 in/hr0.0 mm/hr 0.53 in13.5 mm
06:40 AM 64.8°F18.2°C 64.5°F18.1°C 99% 13.0 mph W20.9 kmh W 16.8 mph27.0 kmh 29.85 in1010.8 mb 0.04 in1.0 mm 0.00 in/hr0.0 mm/hr 0.53 in13.5 mm
06:45 AM 64.9°F18.3°C 64.7°F18.2°C 99% 13.6 mph W21.9 kmh W 19.7 mph31.7 kmh 29.85 in1010.8 mb 0.04 in1.0 mm 0.00 in/hr0.0 mm/hr 0.53 in13.5 mm
06:50 AM 64.9°F18.3°C 64.7°F18.2°C 99% 13.6 mph W21.9 kmh W 19.7 mph31.7 kmh 29.85 in1010.8 mb 0.04 in1.0 mm 0.00 in/hr0.0 mm/hr 0.53 in13.5 mm
06:55 AM 64.8°F18.2°C 64.5°F18.1°C 99% 13.0 mph W20.9 kmh W 23.5 mph37.8 kmh 29.85 in1010.8 mb 0.04 in1.0 mm 0.00 in/hr0.0 mm/hr 0.53 in13.5 mm
07:00 AM 64.9°F18.3°C 64.7°F18.2°C 99% 12.1 mph WNW19.5 kmh WNW 23.5 mph37.8 kmh 29.86 in1011.2 mb 0.04 in1.0 mm 0.00 in/hr0.0 mm/hr 0.53 in13.5 mm
07:05 AM 64.8°F18.2°C 64.5°F18.1°C 99% 15.2 mph NW24.5 kmh NW 22.8 mph36.7 kmh 29.86 in1011.2 mb 0.04 in1.0 mm 0.00 in/hr0.0 mm/hr 0.53 in13.5 mm
07:10 AM 64.4°F18.0°C 64.1°F17.8°C 99% 9.8 mph NW15.8 kmh NW 22.8 mph36.7 kmh 29.86 in1011.2 mb 0.02 in0.5 mm 0.00 in/hr0.0 mm/hr 0.53 in13.5 mm
07:15 AM 64.4°F18.0°C 64.1°F17.8°C 99% 13.0 mph WNW20.9 kmh WNW 22.8 mph36.7 kmh 29.86 in1011.2 mb 0.02 in0.5 mm 0.00 in/hr0.0 mm/hr 0.53 in13.5 mm
07:20 AM 64.0°F17.8°C 63.8°F17.7°C 99% 19.0 mph WNW30.6 kmh WNW 28.9 mph46.5 kmh 29.87 in1011.5 mb 0.06 in1.5 mm 0.48 in/hr12.2 mm/hr 0.57 in14.5 mm
07:25 AM 64.0°F17.8°C 63.8°F17.7°C 99% 13.0 mph W20.9 kmh W 28.9 mph46.5 kmh 29.88 in1011.9 mb 0.05 in1.3 mm 0.00 in/hr0.0 mm/hr 0.57 in14.5 mm
07:30 AM 63.7°F17.6°C 63.4°F17.4°C 99% 14.5 mph WNW23.3 kmh WNW 28.2 mph45.4 kmh 29.87 in1011.5 mb 0.04 in1.0 mm 0.00 in/hr0.0 mm/hr 0.57 in14.5 mm
07:35 AM 63.7°F17.6°C 63.4°F17.4°C 99% 12.1 mph WNW19.5 kmh WNW 26.6 mph42.8 kmh 29.88 in1011.9 mb 0.04 in1.0 mm 0.00 in/hr0.0 mm/hr 0.57 in14.5 mm
07:40 AM 63.5°F17.5°C 63.2°F17.3°C 99% 12.1 mph NW19.5 kmh NW 24.4 mph39.3 kmh 29.89 in1012.2 mb 0.04 in1.0 mm 0.00 in/hr0.0 mm/hr 0.57 in14.5 mm
07:45 AM 63.3°F17.4°C 63.1°F17.3°C 99% 14.5 mph WNW23.3 kmh WNW 23.5 mph37.8 kmh 29.89 in1012.2 mb 0.04 in1.0 mm 0.00 in/hr0.0 mm/hr 0.57 in14.5 mm
07:50 AM 63.1°F17.3°C 62.9°F17.2°C 99% 14.5 mph WNW23.3 kmh WNW 23.5 mph37.8 kmh 29.90 in1012.5 mb 0.04 in1.0 mm 0.00 in/hr0.0 mm/hr 0.57 in14.5 mm
07:55 AM 63.0°F17.2°C 62.7°F17.1°C 99% 11.4 mph WNW18.3 kmh WNW 23.5 mph37.8 kmh 29.89 in1012.2 mb 0.04 in1.0 mm 0.00 in/hr0.0 mm/hr 0.57 in14.5 mm
08:00 AM 62.8°F17.1°C 62.5°F16.9°C 99% 13.0 mph WNW20.9 kmh WNW 23.5 mph37.8 kmh 29.90 in1012.5 mb 0.04 in1.0 mm 0.00 in/hr0.0 mm/hr 0.57 in14.5 mm
08:05 AM 62.8°F17.1°C 62.5°F16.9°C 99% 7.6 mph W12.2 kmh W 23.5 mph37.8 kmh 29.90 in1012.5 mb 0.04 in1.0 mm 0.00 in/hr0.0 mm/hr 0.57 in14.5 mm
08:10 AM 62.6°F17.0°C 62.3°F16.8°C 99% 14.5 mph WNW23.3 kmh WNW 25.9 mph41.7 kmh 29.90 in1012.5 mb 0.04 in1.0 mm 0.00 in/hr0.0 mm/hr 0.57 in14.5 mm
08:15 AM 62.6°F17.0°C 62.3°F16.8°C 99% 12.1 mph WNW19.5 kmh WNW 25.9 mph41.7 kmh 29.90 in1012.5 mb 0.04 in1.0 mm 0.00 in/hr0.0 mm/hr 0.57 in14.5 mm
08:20 AM 62.6°F17.0°C 62.3°F16.8°C 99% 12.1 mph W19.5 kmh W 25.9 mph41.7 kmh 29.91 in1012.9 mb 0.00 in0.0 mm 0.00 in/hr0.0 mm/hr 0.57 in14.5 mm
08:25 AM 62.4°F16.9°C 62.2°F16.8°C 99% 6.9 mph W11.1 kmh W 19.7 mph31.7 kmh 29.91 in1012.9 mb 0.00 in0.0 mm 0.00 in/hr0.0 mm/hr 0.57 in14.5 mm
08:30 AM 62.4°F16.9°C 62.2°F16.8°C 99% 9.8 mph WNW15.8 kmh WNW 23.5 mph37.8 kmh 29.91 in1012.9 mb 0.00 in0.0 mm 0.00 in/hr0.0 mm/hr 0.57 in14.5 mm
08:35 AM 62.4°F16.9°C 62.2°F16.8°C 99% 11.4 mph WNW18.3 kmh WNW 23.5 mph37.8 kmh 29.92 in1013.2 mb 0.00 in0.0 mm 0.00 in/hr0.0 mm/hr 0.57 in14.5 mm
08:40 AM 62.6°F17.0°C 62.3°F16.8°C 99% 11.4 mph W18.3 kmh W 21.3 mph34.3 kmh 29.92 in1013.2 mb 0.00 in0.0 mm 0.00 in/hr0.0 mm/hr 0.57 in14.5 mm
08:45 AM 62.8°F17.1°C 62.5°F16.9°C 99% 14.5 mph WNW23.3 kmh WNW 21.3 mph34.3 kmh 29.92 in1013.2 mb 0.00 in0.0 mm 0.00 in/hr0.0 mm/hr 0.57 in14.5 mm
08:50 AM 63.0°F17.2°C 62.7°F17.1°C 99% 12.1 mph WNW19.5 kmh WNW 22.8 mph36.7 kmh 29.93 in1013.5 mb 0.00 in0.0 mm 0.00 in/hr0.0 mm/hr 0.57 in14.5 mm
08:55 AM 63.1°F17.3°C 62.9°F17.2°C 99% 9.2 mph WNW14.8 kmh WNW 22.8 mph36.7 kmh 29.93 in1013.5 mb 0.00 in0.0 mm 0.00 in/hr0.0 mm/hr 0.57 in14.5 mm
09:00 AM 63.1°F17.3°C 62.9°F17.2°C 99% 14.5 mph NW23.3 kmh NW 23.5 mph37.8 kmh 29.93 in1013.5 mb 0.01 in0.3 mm 0.01 in/hr0.3 mm/hr 0.58 in14.7 mm
09:05 AM 63.5°F17.5°C 63.2°F17.3°C 99% 13.0 mph NW20.9 kmh NW 23.5 mph37.8 kmh 29.93 in1013.5 mb 0.01 in0.3 mm 0.00 in/hr0.0 mm/hr 0.58 in14.7 mm
09:10 AM 63.7°F17.6°C 61.6°F16.4°C 93% 14.5 mph NW23.3 kmh NW 26.6 mph42.8 kmh 29.93 in1013.5 mb 0.05 in1.3 mm 0.48 in/hr12.2 mm/hr 0.61 in15.5 mm
09:15 AM 63.5°F17.5°C 61.5°F16.4°C 93% 16.8 mph NW27.0 kmh NW 26.6 mph42.8 kmh 29.93 in1013.5 mb 0.05 in1.3 mm 0.00 in/hr0.0 mm/hr 0.61 in15.5 mm
09:20 AM 63.5°F17.5°C 61.5°F16.4°C 93% 16.8 mph NW27.0 kmh NW 25.1 mph40.4 kmh 29.93 in1013.5 mb 0.05 in1.3 mm 0.00 in/hr0.0 mm/hr 0.61 in15.5 mm
09:25 AM 63.9°F17.7°C 61.2°F16.2°C 91% 11.4 mph NW18.3 kmh NW 25.1 mph40.4 kmh 29.93 in1013.5 mb 0.05 in1.3 mm 0.00 in/hr0.0 mm/hr 0.61 in15.5 mm
09:30 AM 63.5°F17.5°C 61.2°F16.2°C 92% 13.6 mph NW21.9 kmh NW 25.1 mph40.4 kmh 29.94 in1013.9 mb 0.06 in1.5 mm 0.12 in/hr3.0 mm/hr 0.63 in16.0 mm
09:35 AM 63.5°F17.5°C 61.2°F16.2°C 92% 14.5 mph WNW23.3 kmh WNW 23.5 mph37.8 kmh 29.93 in1013.5 mb 0.06 in1.5 mm 0.00 in/hr0.0 mm/hr 0.63 in16.0 mm
09:40 AM 63.3°F17.4°C 61.3°F16.3°C 93% 11.4 mph WNW18.3 kmh WNW 21.3 mph34.3 kmh 29.94 in1013.9 mb 0.06 in1.5 mm 0.00 in/hr0.0 mm/hr 0.63 in16.0 mm
09:45 AM 63.3°F17.4°C 61.0°F16.1°C 92% 14.5 mph WNW23.3 kmh WNW 23.5 mph37.8 kmh 29.94 in1013.9 mb 0.06 in1.5 mm 0.00 in/hr0.0 mm/hr 0.63 in16.0 mm
09:50 AM 63.7°F17.6°C 61.0°F16.1°C 91% 9.2 mph WNW14.8 kmh WNW 23.5 mph37.8 kmh 29.95 in1014.2 mb 0.06 in1.5 mm 0.00 in/hr0.0 mm/hr 0.63 in16.0 mm
09:55 AM 63.9°F17.7°C 61.2°F16.2°C 91% 9.8 mph NW15.8 kmh NW 32.0 mph51.5 kmh 29.94 in1013.9 mb 0.06 in1.5 mm 0.00 in/hr0.0 mm/hr 0.63 in16.0 mm
10:00 AM 64.6°F18.1°C 61.9°F16.6°C 91% 9.2 mph NW14.8 kmh NW 32.0 mph51.5 kmh 29.95 in1014.2 mb 0.05 in1.3 mm 0.00 in/hr0.0 mm/hr 0.63 in16.0 mm
10:05 AM 64.6°F18.1°C 61.0°F16.1°C 88% 12.1 mph NW19.5 kmh NW 19.7 mph31.7 kmh 29.95 in1014.2 mb 0.05 in1.3 mm 0.00 in/hr0.0 mm/hr 0.63 in16.0 mm
10:10 AM 65.5°F18.6°C 60.9°F16.1°C 85% 13.6 mph NW21.9 kmh NW 19.7 mph31.7 kmh 29.95 in1014.2 mb 0.01 in0.3 mm 0.00 in/hr0.0 mm/hr 0.63 in16.0 mm
10:15 AM 65.5°F18.6°C 60.5°F15.8°C 84% 18.3 mph WNW29.5 kmh WNW 23.5 mph37.8 kmh 29.95 in1014.2 mb 0.01 in0.3 mm 0.00 in/hr0.0 mm/hr 0.63 in16.0 mm
10:20 AM 65.1°F18.4°C 59.5°F15.3°C 82% 15.9 mph W25.6 kmh W 23.5 mph37.8 kmh 29.95 in1014.2 mb 0.01 in0.3 mm 0.00 in/hr0.0 mm/hr 0.63 in16.0 mm
10:25 AM 65.3°F18.5°C 59.7°F15.4°C 82% 10.7 mph W17.2 kmh W 28.2 mph45.4 kmh 29.95 in1014.2 mb 0.01 in0.3 mm 0.00 in/hr0.0 mm/hr 0.63 in16.0 mm
10:30 AM 65.5°F18.6°C 59.9°F15.5°C 82% 10.7 mph WNW17.2 kmh WNW 28.2 mph45.4 kmh 29.96 in1014.6 mb 0.00 in0.0 mm 0.00 in/hr0.0 mm/hr 0.63 in16.0 mm
10:35 AM 65.7°F18.7°C 59.3°F15.2°C 80% 17.4 mph NW28.0 kmh NW 26.6 mph42.8 kmh 29.96 in1014.6 mb 0.04 in1.0 mm 0.48 in/hr12.2 mm/hr 0.66 in16.8 mm
10:40 AM 65.3°F18.5°C 58.3°F14.6°C 78% 16.8 mph WNW27.0 kmh WNW 26.6 mph42.8 kmh 29.96 in1014.6 mb 0.04 in1.0 mm 0.00 in/hr0.0 mm/hr 0.66 in16.8 mm
10:45 AM 65.5°F18.6°C 59.2°F15.1°C 80% 14.5 mph WNW23.3 kmh WNW 26.6 mph42.8 kmh 29.95 in1014.2 mb 0.12 in3.0 mm 0.96 in/hr24.4 mm/hr 0.74 in18.8 mm
10:50 AM 66.6°F19.2°C 60.2°F15.7°C 80% 14.5 mph NW23.3 kmh NW 27.3 mph43.9 kmh 29.95 in1014.2 mb 0.12 in3.0 mm 0.00 in/hr0.0 mm/hr 0.74 in18.8 mm
10:55 AM 67.1°F19.5°C 60.0°F15.6°C 78% 14.5 mph NW23.3 kmh NW 27.3 mph43.9 kmh 29.95 in1014.2 mb 0.12 in3.0 mm 0.00 in/hr0.0 mm/hr 0.74 in18.8 mm
11:00 AM 67.5°F19.7°C 59.3°F15.2°C 75% 16.8 mph WNW27.0 kmh WNW 27.3 mph43.9 kmh 29.95 in1014.2 mb 0.12 in3.0 mm 0.00 in/hr0.0 mm/hr 0.74 in18.8 mm
11:05 AM 66.9°F19.4°C 58.8°F14.9°C 75% 15.2 mph WNW24.5 kmh WNW 28.2 mph45.4 kmh 29.96 in1014.6 mb 0.12 in3.0 mm 0.00 in/hr0.0 mm/hr 0.74 in18.8 mm
11:10 AM 67.1°F19.5°C 58.6°F14.8°C 74% 16.8 mph W27.0 kmh W 29.8 mph48.0 kmh 29.95 in1014.2 mb 0.12 in3.0 mm 0.00 in/hr0.0 mm/hr 0.74 in18.8 mm
11:15 AM 67.3°F19.6°C 58.0°F14.4°C 72% 23.5 mph W37.8 kmh W 31.1 mph50.1 kmh 29.95 in1014.2 mb 0.12 in3.0 mm 0.00 in/hr0.0 mm/hr 0.74 in18.8 mm
11:20 AM 67.5°F19.7°C 58.9°F14.9°C 74% 15.9 mph W25.6 kmh W 31.1 mph50.1 kmh 29.95 in1014.2 mb 0.12 in3.0 mm 0.00 in/hr0.0 mm/hr 0.74 in18.8 mm
11:25 AM 67.6°F19.8°C 59.1°F15.1°C 74% 10.7 mph WNW17.2 kmh WNW 29.8 mph48.0 kmh 29.95 in1014.2 mb 0.12 in3.0 mm 0.00 in/hr0.0 mm/hr 0.74 in18.8 mm
11:30 AM 67.6°F19.8°C 58.7°F14.8°C 73% 16.8 mph W27.0 kmh W 28.9 mph46.5 kmh 29.95 in1014.2 mb 0.14 in3.6 mm 0.24 in/hr6.1 mm/hr 0.77 in19.6 mm
11:35 AM 68.0°F20.0°C 59.4°F15.2°C 74% 12.1 mph W19.5 kmh W 28.9 mph46.5 kmh 29.95 in1014.2 mb 0.11 in2.8 mm 0.00 in/hr0.0 mm/hr 0.77 in19.6 mm
11:40 AM 68.4°F20.2°C 59.8°F15.4°C 74% 12.1 mph WNW19.5 kmh WNW 28.2 mph45.4 kmh 29.96 in1014.6 mb 0.11 in2.8 mm 0.00 in/hr0.0 mm/hr 0.77 in19.6 mm
11:45 AM 68.2°F20.1°C 58.4°F14.7°C 71% 15.2 mph WNW24.5 kmh WNW 22.8 mph36.7 kmh 29.96 in1014.6 mb 0.02 in0.5 mm 0.00 in/hr0.0 mm/hr 0.77 in19.6 mm
11:50 AM 67.5°F19.7°C 58.5°F14.7°C 73% 15.2 mph WNW24.5 kmh WNW 32.0 mph51.5 kmh 29.96 in1014.6 mb 0.02 in0.5 mm 0.00 in/hr0.0 mm/hr 0.77 in19.6 mm
11:55 AM 67.6°F19.8°C 59.5°F15.3°C 75% 14.5 mph WNW23.3 kmh WNW 32.0 mph51.5 kmh 29.95 in1014.2 mb 0.02 in0.5 mm 0.00 in/hr0.0 mm/hr 0.77 in19.6 mm
12:00 PM 67.3°F19.6°C 58.0°F14.4°C 72% 13.6 mph WNW21.9 kmh WNW 24.4 mph39.3 kmh 29.96 in1014.6 mb 0.02 in0.5 mm 0.00 in/hr0.0 mm/hr 0.77 in19.6 mm
12:05 PM 66.7°F19.3°C 58.6°F14.8°C 75% 14.5 mph NW23.3 kmh NW 24.4 mph39.3 kmh 29.95 in1014.2 mb 0.04 in1.0 mm 0.24 in/hr6.1 mm/hr 0.78 in19.8 mm
12:10 PM 67.3°F19.6°C 58.4°F14.7°C 73% 14.5 mph WNW23.3 kmh WNW 24.4 mph39.3 kmh 29.96 in1014.6 mb 0.04 in1.0 mm 0.00 in/hr0.0 mm/hr 0.78 in19.8 mm
12:15 PM 66.6°F19.2°C 58.8°F14.9°C 76% 9.8 mph WNW15.8 kmh WNW 29.8 mph48.0 kmh 29.95 in1014.2 mb 0.04 in1.0 mm 0.00 in/hr0.0 mm/hr 0.78 in19.8 mm
12:20 PM 66.6°F19.2°C 59.1°F15.1°C 77% 9.8 mph WNW15.8 kmh WNW 29.8 mph48.0 kmh 29.96 in1014.6 mb 0.04 in1.0 mm 0.00 in/hr0.0 mm/hr 0.78 in19.8 mm
12:25 PM 66.7°F19.3°C 58.6°F14.8°C 75% 11.4 mph NW18.3 kmh NW 22.8 mph36.7 kmh 29.95 in1014.2 mb 0.06 in1.5 mm 0.24 in/hr6.1 mm/hr 0.80 in20.3 mm
12:30 PM 67.3°F19.6°C 58.4°F14.7°C 73% 15.9 mph W25.6 kmh W 25.1 mph40.4 kmh 29.95 in1014.2 mb 0.04 in1.0 mm 0.00 in/hr0.0 mm/hr 0.80 in20.3 mm
12:35 PM 67.6°F19.8°C 58.3°F14.6°C 72% 15.9 mph W25.6 kmh W 25.1 mph40.4 kmh 29.95 in1014.2 mb 0.06 in1.5 mm 0.24 in/hr6.1 mm/hr 0.83 in21.1 mm
12:40 PM 67.8°F19.9°C 58.9°F14.9°C 73% 11.4 mph W18.3 kmh W 29.8 mph48.0 kmh 29.95 in1014.2 mb 0.06 in1.5 mm 0.00 in/hr0.0 mm/hr 0.83 in21.1 mm
12:45 PM 68.7°F20.4°C 59.4°F15.2°C 72% 9.8 mph WNW15.8 kmh WNW 29.8 mph48.0 kmh 29.95 in1014.2 mb 0.06 in1.5 mm 0.00 in/hr0.0 mm/hr 0.83 in21.1 mm
12:50 PM 68.2°F20.1°C 58.4°F14.7°C 71% 12.1 mph WNW19.5 kmh WNW 32.0 mph51.5 kmh 29.95 in1014.2 mb 0.06 in1.5 mm 0.00 in/hr0.0 mm/hr 0.83 in21.1 mm
12:55 PM 67.3°F19.6°C 58.4°F14.7°C 73% 15.2 mph NW24.5 kmh NW 32.0 mph51.5 kmh 29.95 in1014.2 mb 0.12 in3.0 mm 0.72 in/hr18.3 mm/hr 0.89 in22.6 mm
01:00 PM 66.7°F19.3°C 57.8°F14.3°C 73% 15.9 mph NW25.6 kmh NW 26.6 mph42.8 kmh 29.95 in1014.2 mb 0.12 in3.0 mm 0.00 in/hr0.0 mm/hr 0.89 in22.6 mm
01:05 PM 66.4°F19.1°C 58.2°F14.6°C 75% 17.4 mph NW28.0 kmh NW 33.6 mph54.1 kmh 29.94 in1013.9 mb 0.14 in3.6 mm 0.24 in/hr6.1 mm/hr 0.92 in23.4 mm
01:10 PM 67.6°F19.8°C 58.3°F14.6°C 72% 14.5 mph WNW23.3 kmh WNW 33.6 mph54.1 kmh 29.94 in1013.9 mb 0.17 in4.3 mm 0.36 in/hr9.1 mm/hr 0.94 in23.9 mm
01:15 PM 66.9°F19.4°C 58.0°F14.4°C 73% 16.8 mph W27.0 kmh W 25.9 mph41.7 kmh 29.94 in1013.9 mb 0.18 in4.6 mm 0.12 in/hr3.0 mm/hr 0.96 in24.4 mm
01:20 PM 66.4°F19.1°C 58.2°F14.6°C 75% 15.9 mph W25.6 kmh W 27.3 mph43.9 kmh 29.94 in1013.9 mb 0.15 in3.8 mm 0.00 in/hr0.0 mm/hr 0.96 in24.4 mm
01:25 PM 66.7°F19.3°C 58.2°F14.6°C 74% 12.1 mph W19.5 kmh W 27.3 mph43.9 kmh 29.94 in1013.9 mb 0.15 in3.8 mm 0.00 in/hr0.0 mm/hr 0.96 in24.4 mm
01:30 PM 66.2°F19.0°C 58.4°F14.7°C 76% 9.2 mph WNW14.8 kmh WNW 22.1 mph35.6 kmh 29.93 in1013.5 mb 0.15 in3.8 mm 0.00 in/hr0.0 mm/hr 0.96 in24.4 mm
01:35 PM 66.0°F18.9°C 58.6°F14.8°C 77% 13.6 mph NW21.9 kmh NW 25.1 mph40.4 kmh 29.93 in1013.5 mb 0.13 in3.3 mm 0.00 in/hr0.0 mm/hr 0.96 in24.4 mm
01:40 PM 65.7°F18.7°C 57.5°F14.2°C 75% 16.8 mph NW27.0 kmh NW 28.9 mph46.5 kmh 29.92 in1013.2 mb 0.14 in3.6 mm 0.12 in/hr3.0 mm/hr 0.97 in24.6 mm
01:45 PM 64.8°F18.2°C 57.4°F14.1°C 77% 12.1 mph WNW19.5 kmh WNW 28.9 mph46.5 kmh 29.93 in1013.5 mb 0.14 in3.6 mm 0.00 in/hr0.0 mm/hr 0.97 in24.6 mm
01:50 PM 64.8°F18.2°C 57.4°F14.1°C 77% 10.7 mph W17.2 kmh W 25.1 mph40.4 kmh 29.93 in1013.5 mb 0.14 in3.6 mm 0.00 in/hr0.0 mm/hr 0.97 in24.6 mm
01:55 PM 65.1°F18.4°C 58.5°F14.7°C 79% 15.2 mph WNW24.5 kmh WNW 24.4 mph39.3 kmh 29.93 in1013.5 mb 0.08 in2.0 mm 0.00 in/hr0.0 mm/hr 0.97 in24.6 mm
02:00 PM 64.8°F18.2°C 59.5°F15.3°C 83% 10.7 mph NW17.2 kmh NW 24.4 mph39.3 kmh 29.93 in1013.5 mb 0.08 in2.0 mm 0.00 in/hr0.0 mm/hr 0.97 in24.6 mm
02:05 PM 64.6°F18.1°C 59.3°F15.2°C 83% 12.1 mph NW19.5 kmh NW 25.1 mph40.4 kmh 29.93 in1013.5 mb 0.05 in1.3 mm 0.00 in/hr0.0 mm/hr 0.97 in24.6 mm
02:10 PM 65.3°F18.5°C 59.7°F15.4°C 82% 13.6 mph NW21.9 kmh NW 25.1 mph40.4 kmh 29.94 in1013.9 mb 0.02 in0.5 mm 0.00 in/hr0.0 mm/hr 0.97 in24.6 mm
02:15 PM 65.5°F18.6°C 59.9°F15.5°C 82% 10.7 mph NW17.2 kmh NW 21.3 mph34.3 kmh 29.93 in1013.5 mb 0.01 in0.3 mm 0.00 in/hr0.0 mm/hr 0.97 in24.6 mm
02:20 PM 65.8°F18.8°C 59.9°F15.5°C 81% 12.1 mph NW19.5 kmh NW 21.3 mph34.3 kmh 29.93 in1013.5 mb 0.01 in0.3 mm 0.00 in/hr0.0 mm/hr 0.97 in24.6 mm
02:25 PM 65.1°F18.4°C 58.8°F14.9°C 80% 14.5 mph NW23.3 kmh NW 22.1 mph35.6 kmh 29.93 in1013.5 mb 0.01 in0.3 mm 0.00 in/hr0.0 mm/hr 0.97 in24.6 mm
02:30 PM 64.6°F18.1°C 58.6°F14.8°C 81% 10.7 mph NW17.2 kmh NW 22.1 mph35.6 kmh 29.94 in1013.9 mb 0.01 in0.3 mm 0.00 in/hr0.0 mm/hr 0.97 in24.6 mm
02:35 PM 64.6°F18.1°C 59.0°F15.0°C 82% 10.7 mph NW17.2 kmh NW 19.0 mph30.6 kmh 29.93 in1013.5 mb 0.01 in0.3 mm 0.00 in/hr0.0 mm/hr 0.97 in24.6 mm
02:40 PM 64.6°F18.1°C 58.6°F14.8°C 81% 12.1 mph WNW19.5 kmh WNW 19.0 mph30.6 kmh 29.93 in1013.5 mb 0.00 in0.0 mm 0.00 in/hr0.0 mm/hr 0.97 in24.6 mm
02:45 PM 64.4°F18.0°C 58.5°F14.7°C 81% 10.7 mph WNW17.2 kmh WNW 19.0 mph30.6 kmh 29.93 in1013.5 mb 0.00 in0.0 mm 0.00 in/hr0.0 mm/hr 0.97 in24.6 mm
02:50 PM 64.4°F18.0°C 58.5°F14.7°C 81% 13.0 mph NW20.9 kmh NW 25.9 mph41.7 kmh 29.93 in1013.5 mb 0.00 in0.0 mm 0.00 in/hr0.0 mm/hr 0.97 in24.6 mm
02:55 PM 65.7°F18.7°C 58.6°F14.8°C 78% 15.2 mph NW24.5 kmh NW 25.9 mph41.7 kmh 29.93 in1013.5 mb 0.00 in0.0 mm 0.00 in/hr0.0 mm/hr 0.97 in24.6 mm
03:00 PM 64.9°F18.3°C 58.3°F14.6°C 79% 13.0 mph NW20.9 kmh NW 25.1 mph40.4 kmh 29.93 in1013.5 mb 0.00 in0.0 mm 0.00 in/hr0.0 mm/hr 0.97 in24.6 mm
03:05 PM 64.2°F17.9°C 58.6°F14.8°C 82% 9.2 mph NW14.8 kmh NW 25.1 mph40.4 kmh 29.93 in1013.5 mb 0.00 in0.0 mm 0.00 in/hr0.0 mm/hr 0.97 in24.6 mm
03:10 PM 64.0°F17.8°C 58.1°F14.5°C 81% 14.5 mph NW23.3 kmh NW 21.3 mph34.3 kmh 29.93 in1013.5 mb 0.00 in0.0 mm 0.00 in/hr0.0 mm/hr 0.97 in24.6 mm
03:15 PM 63.9°F17.7°C 57.9°F14.4°C 81% 11.4 mph WNW18.3 kmh WNW 21.3 mph34.3 kmh 29.93 in1013.5 mb 0.00 in0.0 mm 0.00 in/hr0.0 mm/hr 0.97 in24.6 mm
03:20 PM 63.7°F17.6°C 57.8°F14.3°C 81% 15.2 mph NW24.5 kmh NW 22.8 mph36.7 kmh 29.93 in1013.5 mb 0.00 in0.0 mm 0.00 in/hr0.0 mm/hr 0.97 in24.6 mm
03:25 PM 63.3°F17.4°C 58.4°F14.7°C 84% 9.2 mph NW14.8 kmh NW 22.8 mph36.7 kmh 29.93 in1013.5 mb 0.00 in0.0 mm 0.00 in/hr0.0 mm/hr 0.97 in24.6 mm
03:30 PM 63.3°F17.4°C 57.7°F14.3°C 82% 13.0 mph NW20.9 kmh NW 25.9 mph41.7 kmh 29.93 in1013.5 mb 0.00 in0.0 mm 0.00 in/hr0.0 mm/hr 0.97 in24.6 mm
03:35 PM 63.1°F17.3°C 57.9°F14.4°C 83% 13.0 mph NW20.9 kmh NW 25.9 mph41.7 kmh 29.93 in1013.5 mb 0.00 in0.0 mm 0.00 in/hr0.0 mm/hr 0.97 in24.6 mm
03:40 PM 62.8°F17.1°C 57.6°F14.2°C 83% 13.6 mph NW21.9 kmh NW 22.1 mph35.6 kmh 29.94 in1013.9 mb 0.00 in0.0 mm 0.00 in/hr0.0 mm/hr 0.97 in24.6 mm
03:45 PM 62.2°F16.8°C 57.4°F14.1°C 84% 9.2 mph NW14.8 kmh NW 22.1 mph35.6 kmh 29.94 in1013.9 mb 0.00 in0.0 mm 0.00 in/hr0.0 mm/hr 0.97 in24.6 mm
03:50 PM 61.9°F16.6°C 57.0°F13.9°C 84% 15.2 mph NW24.5 kmh NW 22.1 mph35.6 kmh 29.94 in1013.9 mb 0.00 in0.0 mm 0.00 in/hr0.0 mm/hr 0.97 in24.6 mm
03:55 PM 61.5°F16.4°C 57.0°F13.9°C 85% 6.9 mph NW11.1 kmh NW 22.1 mph35.6 kmh 29.94 in1013.9 mb 0.00 in0.0 mm 0.00 in/hr0.0 mm/hr 0.97 in24.6 mm
04:00 PM 61.7°F16.5°C 56.8°F13.8°C 84% 9.2 mph NW14.8 kmh NW 22.8 mph36.7 kmh 29.94 in1013.9 mb 0.00 in0.0 mm 0.00 in/hr0.0 mm/hr 0.97 in24.6 mm
04:05 PM 61.7°F16.5°C 57.2°F14.0°C 85% 8.3 mph NW13.4 kmh NW 22.8 mph36.7 kmh 29.93 in1013.5 mb 0.00 in0.0 mm 0.00 in/hr0.0 mm/hr 0.97 in24.6 mm
04:10 PM 61.7°F16.5°C 56.5°F13.6°C 83% 12.1 mph NW19.5 kmh NW 23.5 mph37.8 kmh 29.93 in1013.5 mb 0.00 in0.0 mm 0.00 in/hr0.0 mm/hr 0.97 in24.6 mm
04:15 PM 61.7°F16.5°C 56.5°F13.6°C 83% 13.0 mph NW20.9 kmh NW 23.5 mph37.8 kmh 29.94 in1013.9 mb 0.00 in0.0 mm 0.00 in/hr0.0 mm/hr 0.97 in24.6 mm
04:20 PM 61.3°F16.3°C 56.1°F13.4°C 83% 12.1 mph NW19.5 kmh NW 23.5 mph37.8 kmh 29.93 in1013.5 mb 0.00 in0.0 mm 0.00 in/hr0.0 mm/hr 0.97 in24.6 mm
04:25 PM 61.2°F16.2°C 55.3°F12.9°C 81% 9.8 mph NW15.8 kmh NW 23.5 mph37.8 kmh 29.94 in1013.9 mb 0.00 in0.0 mm 0.00 in/hr0.0 mm/hr 0.97 in24.6 mm
04:30 PM 61.2°F16.2°C 55.3°F12.9°C 81% 11.4 mph NW18.3 kmh NW 22.1 mph35.6 kmh 29.94 in1013.9 mb 0.00 in0.0 mm 0.00 in/hr0.0 mm/hr 0.97 in24.6 mm
04:35 PM 61.2°F16.2°C 55.3°F12.9°C 81% 14.5 mph WNW23.3 kmh WNW 20.6 mph33.2 kmh 29.94 in1013.9 mb 0.00 in0.0 mm 0.00 in/hr0.0 mm/hr 0.97 in24.6 mm
04:40 PM 60.8°F16.0°C 54.9°F12.7°C 81% 9.8 mph W15.8 kmh W 20.6 mph33.2 kmh 29.95 in1014.2 mb 0.00 in0.0 mm 0.00 in/hr0.0 mm/hr 0.97 in24.6 mm
04:45 PM 60.4°F15.8°C 54.9°F12.7°C 82% 11.4 mph WNW18.3 kmh WNW 20.6 mph33.2 kmh 29.94 in1013.9 mb 0.00 in0.0 mm 0.00 in/hr0.0 mm/hr 0.97 in24.6 mm
04:50 PM 60.1°F15.6°C 54.2°F12.3°C 81% 10.7 mph NW17.2 kmh NW 21.3 mph34.3 kmh 29.94 in1013.9 mb 0.00 in0.0 mm 0.00 in/hr0.0 mm/hr 0.97 in24.6 mm
04:55 PM 59.9°F15.5°C 54.4°F12.4°C 82% 6.0 mph NW9.7 kmh NW 21.3 mph34.3 kmh 29.95 in1014.2 mb 0.00 in0.0 mm 0.00 in/hr0.0 mm/hr 0.97 in24.6 mm
05:00 PM 59.7°F15.4°C 53.9°F12.2°C 81% 10.7 mph NW17.2 kmh NW 17.4 mph28.0 kmh 29.94 in1013.9 mb 0.00 in0.0 mm 0.00 in/hr0.0 mm/hr 0.97 in24.6 mm
05:05 PM 59.7°F15.4°C 54.2°F12.3°C 82% 9.2 mph NW14.8 kmh NW 19.7 mph31.7 kmh 29.94 in1013.9 mb 0.00 in0.0 mm 0.00 in/hr0.0 mm/hr 0.97 in24.6 mm
05:10 PM 59.7°F15.4°C 54.6°F12.6°C 83% 10.7 mph NW17.2 kmh NW 19.7 mph31.7 kmh 29.94 in1013.9 mb 0.00 in0.0 mm 0.00 in/hr0.0 mm/hr 0.97 in24.6 mm
05:15 PM 59.5°F15.3°C 54.4°F12.4°C 83% 9.2 mph NW14.8 kmh NW 18.3 mph29.5 kmh 29.94 in1013.9 mb 0.00 in0.0 mm 0.00 in/hr0.0 mm/hr 0.97 in24.6 mm
05:20 PM 59.5°F15.3°C 54.7°F12.6°C 84% 8.3 mph NW13.4 kmh NW 15.2 mph24.5 kmh 29.95 in1014.2 mb 0.00 in0.0 mm 0.00 in/hr0.0 mm/hr 0.97 in24.6 mm
05:25 PM 59.5°F15.3°C 54.4°F12.4°C 83% 8.3 mph NW13.4 kmh NW 20.6 mph33.2 kmh 29.95 in1014.2 mb 0.00 in0.0 mm 0.00 in/hr0.0 mm/hr 0.97 in24.6 mm
05:30 PM 59.7°F15.4°C 54.9°F12.7°C 84% 10.7 mph NW17.2 kmh NW 20.6 mph33.2 kmh 29.95 in1014.2 mb 0.00 in0.0 mm 0.00 in/hr0.0 mm/hr 0.97 in24.6 mm
05:35 PM 59.5°F15.3°C 54.4°F12.4°C 83% 9.2 mph W14.8 kmh W 16.8 mph27.0 kmh 29.95 in1014.2 mb 0.00 in0.0 mm 0.00 in/hr0.0 mm/hr 0.97 in24.6 mm
05:40 PM 59.4°F15.2°C 54.2°F12.3°C 83% 9.8 mph WNW15.8 kmh WNW 16.8 mph27.0 kmh 29.95 in1014.2 mb 0.00 in0.0 mm 0.00 in/hr0.0 mm/hr 0.97 in24.6 mm
05:45 PM 59.4°F15.2°C 54.5°F12.5°C 84% 8.3 mph NW13.4 kmh NW 15.9 mph25.6 kmh 29.96 in1014.6 mb 0.00 in0.0 mm 0.00 in/hr0.0 mm/hr 0.97 in24.6 mm
05:50 PM 59.2°F15.1°C 54.4°F12.4°C 84% 7.6 mph NW12.2 kmh NW 15.9 mph25.6 kmh 29.95 in1014.2 mb 0.00 in0.0 mm 0.00 in/hr0.0 mm/hr 0.97 in24.6 mm
05:55 PM 59.0°F15.0°C 54.2°F12.3°C 84% 6.0 mph NW9.7 kmh NW 15.9 mph25.6 kmh 29.96 in1014.6 mb 0.00 in0.0 mm 0.00 in/hr0.0 mm/hr 0.97 in24.6 mm
06:00 PM 59.0°F15.0°C 54.2°F12.3°C 84% 10.7 mph NW17.2 kmh NW 15.2 mph24.5 kmh 29.96 in1014.6 mb 0.00 in0.0 mm 0.00 in/hr0.0 mm/hr 0.97 in24.6 mm
06:05 PM 59.0°F15.0°C 54.2°F12.3°C 84% 10.7 mph NW17.2 kmh NW 15.9 mph25.6 kmh 29.96 in1014.6 mb 0.00 in0.0 mm 0.00 in/hr0.0 mm/hr 0.97 in24.6 mm
06:10 PM 58.5°F14.7°C 54.0°F12.2°C 85% 5.4 mph NW8.7 kmh NW 15.9 mph25.6 kmh 29.96 in1014.6 mb 0.00 in0.0 mm 0.00 in/hr0.0 mm/hr 0.97 in24.6 mm
06:15 PM 58.5°F14.7°C 54.0°F12.2°C 85% 7.6 mph NW12.2 kmh NW 15.9 mph25.6 kmh 29.96 in1014.6 mb 0.00 in0.0 mm 0.00 in/hr0.0 mm/hr 0.97 in24.6 mm
06:20 PM 58.1°F14.5°C 53.6°F12.0°C 85% 6.0 mph NW9.7 kmh NW 13.6 mph21.9 kmh 29.96 in1014.6 mb 0.00 in0.0 mm 0.00 in/hr0.0 mm/hr 0.97 in24.6 mm
06:25 PM 57.9°F14.4°C 53.8°F12.1°C 86% 6.9 mph NW11.1 kmh NW 13.0 mph20.9 kmh 29.96 in1014.6 mb 0.00 in0.0 mm 0.00 in/hr0.0 mm/hr 0.97 in24.6 mm
06:30 PM 57.6°F14.2°C 53.7°F12.1°C 87% 6.9 mph NW11.1 kmh NW 12.1 mph19.5 kmh 29.96 in1014.6 mb 0.00 in0.0 mm 0.00 in/hr0.0 mm/hr 0.97 in24.6 mm
06:35 PM 57.4°F14.1°C 53.6°F12.0°C 87% 5.4 mph WNW8.7 kmh WNW 12.1 mph19.5 kmh 29.96 in1014.6 mb 0.00 in0.0 mm 0.00 in/hr0.0 mm/hr 0.97 in24.6 mm
06:40 PM 57.2°F14.0°C 53.7°F12.1°C 88% 4.5 mph WNW7.2 kmh WNW 9.8 mph15.8 kmh 29.96 in1014.6 mb 0.00 in0.0 mm 0.00 in/hr0.0 mm/hr 0.97 in24.6 mm
06:45 PM 57.2°F14.0°C 53.7°F12.1°C 88% 3.8 mph NW6.1 kmh NW 9.8 mph15.8 kmh 29.96 in1014.6 mb 0.00 in0.0 mm 0.00 in/hr0.0 mm/hr 0.97 in24.6 mm
06:50 PM 56.8°F13.8°C 53.3°F11.8°C 88% 6.9 mph NW11.1 kmh NW 11.4 mph18.3 kmh 29.96 in1014.6 mb 0.00 in0.0 mm 0.00 in/hr0.0 mm/hr 0.97 in24.6 mm
06:55 PM 56.8°F13.8°C 53.3°F11.8°C 88% 6.0 mph NW9.7 kmh NW 13.0 mph20.9 kmh 29.96 in1014.6 mb 0.00 in0.0 mm 0.00 in/hr0.0 mm/hr 0.97 in24.6 mm
07:00 PM 56.8°F13.8°C 53.6°F12.0°C 89% 4.5 mph NW7.2 kmh NW 13.0 mph20.9 kmh 29.96 in1014.6 mb 0.00 in0.0 mm 0.00 in/hr0.0 mm/hr 0.97 in24.6 mm
07:05 PM 56.8°F13.8°C 53.6°F12.0°C 89% 6.0 mph NW9.7 kmh NW 12.1 mph19.5 kmh 29.96 in1014.6 mb 0.00 in0.0 mm 0.00 in/hr0.0 mm/hr 0.97 in24.6 mm
07:10 PM 56.7°F13.7°C 53.5°F11.9°C 89% 3.1 mph WNW5.0 kmh WNW 10.7 mph17.2 kmh 29.96 in1014.6 mb 0.00 in0.0 mm 0.00 in/hr0.0 mm/hr 0.97 in24.6 mm
07:15 PM 56.5°F13.6°C 53.3°F11.8°C 89% 5.4 mph WNW8.7 kmh WNW 10.7 mph17.2 kmh 29.97 in1014.9 mb 0.00 in0.0 mm 0.00 in/hr0.0 mm/hr 0.97 in24.6 mm
07:20 PM 56.5°F13.6°C 53.3°F11.8°C 89% 3.8 mph NW6.1 kmh NW 8.3 mph13.4 kmh 29.97 in1014.9 mb 0.00 in0.0 mm 0.00 in/hr0.0 mm/hr 0.97 in24.6 mm
07:25 PM 56.3°F13.5°C 53.4°F11.9°C 90% 3.8 mph NW6.1 kmh NW 8.3 mph13.4 kmh 29.97 in1014.9 mb 0.00 in0.0 mm 0.00 in/hr0.0 mm/hr 0.97 in24.6 mm
07:30 PM 56.1°F13.4°C 53.2°F11.8°C 90% 3.8 mph WNW6.1 kmh WNW 6.9 mph11.1 kmh 29.97 in1014.9 mb 0.00 in0.0 mm 0.00 in/hr0.0 mm/hr 0.97 in24.6 mm
07:35 PM 55.9°F13.3°C 53.4°F11.9°C 91% 3.8 mph NW6.1 kmh NW 8.3 mph13.4 kmh 29.97 in1014.9 mb 0.00 in0.0 mm 0.00 in/hr0.0 mm/hr 0.97 in24.6 mm
07:40 PM 55.9°F13.3°C 53.1°F11.7°C 90% 3.1 mph NW5.0 kmh NW 8.3 mph13.4 kmh 29.98 in1015.2 mb 0.00 in0.0 mm 0.00 in/hr0.0 mm/hr 0.97 in24.6 mm
07:45 PM 55.8°F13.2°C 52.9°F11.6°C 90% 4.5 mph WNW7.2 kmh WNW 8.3 mph13.4 kmh 29.98 in1015.2 mb 0.00 in0.0 mm 0.00 in/hr0.0 mm/hr 0.97 in24.6 mm
07:50 PM 55.6°F13.1°C 53.0°F11.7°C 91% 4.5 mph WNW7.2 kmh WNW 9.8 mph15.8 kmh 29.98 in1015.2 mb 0.00 in0.0 mm 0.00 in/hr0.0 mm/hr 0.97 in24.6 mm
07:55 PM 55.6°F13.1°C 52.7°F11.5°C 90% 4.5 mph WNW7.2 kmh WNW 9.8 mph15.8 kmh 29.98 in1015.2 mb 0.00 in0.0 mm 0.00 in/hr0.0 mm/hr 0.97 in24.6 mm
08:00 PM 55.4°F13.0°C 52.5°F11.4°C 90% 3.1 mph WNW5.0 kmh WNW 9.8 mph15.8 kmh 29.98 in1015.2 mb 0.00 in0.0 mm 0.00 in/hr0.0 mm/hr 0.97 in24.6 mm
08:05 PM 55.4°F13.0°C 52.5°F11.4°C 90% 3.1 mph W5.0 kmh W 7.6 mph12.2 kmh 29.98 in1015.2 mb 0.00 in0.0 mm 0.00 in/hr0.0 mm/hr 0.97 in24.6 mm
08:10 PM 55.4°F13.0°C 52.5°F11.4°C 90% 3.8 mph WNW6.1 kmh WNW 6.9 mph11.1 kmh 29.98 in1015.2 mb 0.00 in0.0 mm 0.00 in/hr0.0 mm/hr 0.97 in24.6 mm
08:15 PM 55.4°F13.0°C 52.5°F11.4°C 90% 3.8 mph NW6.1 kmh NW 8.3 mph13.4 kmh 29.99 in1015.6 mb 0.00 in0.0 mm 0.00 in/hr0.0 mm/hr 0.97 in24.6 mm
08:20 PM 55.2°F12.9°C 52.3°F11.3°C 90% 3.1 mph WNW5.0 kmh WNW 8.3 mph13.4 kmh 29.99 in1015.6 mb 0.00 in0.0 mm 0.00 in/hr0.0 mm/hr 0.97 in24.6 mm
08:25 PM 55.2°F12.9°C 52.0°F11.1°C 89% 5.4 mph WNW8.7 kmh WNW 8.3 mph13.4 kmh 29.99 in1015.6 mb 0.00 in0.0 mm 0.00 in/hr0.0 mm/hr 0.97 in24.6 mm
08:30 PM 55.0°F12.8°C 51.9°F11.1°C 89% 3.8 mph WNW6.1 kmh WNW 8.3 mph13.4 kmh 29.99 in1015.6 mb 0.00 in0.0 mm 0.00 in/hr0.0 mm/hr 0.97 in24.6 mm
08:35 PM 55.0°F12.8°C 51.6°F10.9°C 88% 3.8 mph WNW6.1 kmh WNW 9.2 mph14.8 kmh 30.00 in1015.9 mb 0.00 in0.0 mm 0.00 in/hr0.0 mm/hr 0.97 in24.6 mm
08:40 PM 55.0°F12.8°C 51.6°F10.9°C 88% 3.1 mph WNW5.0 kmh WNW 9.2 mph14.8 kmh 29.99 in1015.6 mb 0.00 in0.0 mm 0.00 in/hr0.0 mm/hr 0.97 in24.6 mm
08:45 PM 54.9°F12.7°C 51.4°F10.8°C 88% 3.1 mph W5.0 kmh W 9.2 mph14.8 kmh 29.99 in1015.6 mb 0.00 in0.0 mm 0.00 in/hr0.0 mm/hr 0.97 in24.6 mm
08:50 PM 54.9°F12.7°C 51.4°F10.8°C 88% 3.8 mph W6.1 kmh W 9.2 mph14.8 kmh 29.99 in1015.6 mb 0.00 in0.0 mm 0.00 in/hr0.0 mm/hr 0.97 in24.6 mm
08:55 PM 54.7°F12.6°C 51.2°F10.7°C 88% 3.8 mph WNW6.1 kmh WNW 6.9 mph11.1 kmh 30.00 in1015.9 mb 0.00 in0.0 mm 0.00 in/hr0.0 mm/hr 0.97 in24.6 mm
09:00 PM 54.7°F12.6°C 51.2°F10.7°C 88% 2.2 mph WNW3.5 kmh WNW 6.9 mph11.1 kmh 29.99 in1015.6 mb 0.00 in0.0 mm 0.00 in/hr0.0 mm/hr 0.97 in24.6 mm
09:05 PM 54.5°F12.5°C 51.3°F10.7°C 89% 3.8 mph WNW6.1 kmh WNW 8.3 mph13.4 kmh 30.00 in1015.9 mb 0.00 in0.0 mm 0.00 in/hr0.0 mm/hr 0.97 in24.6 mm
09:10 PM 54.5°F12.5°C 51.3°F10.7°C 89% 3.1 mph WNW5.0 kmh WNW 8.3 mph13.4 kmh 30.00 in1015.9 mb 0.00 in0.0 mm 0.00 in/hr0.0 mm/hr 0.97 in24.6 mm
09:15 PM 54.5°F12.5°C 51.6°F10.9°C 90% 2.2 mph WNW3.5 kmh WNW 6.9 mph11.1 kmh 30.00 in1015.9 mb 0.00 in0.0 mm 0.00 in/hr0.0 mm/hr 0.97 in24.6 mm
09:20 PM 54.5°F12.5°C 51.6°F10.9°C 90% 3.8 mph W6.1 kmh W 7.6 mph12.2 kmh 30.00 in1015.9 mb 0.00 in0.0 mm 0.00 in/hr0.0 mm/hr 0.97 in24.6 mm
09:25 PM 54.3°F12.4°C 51.5°F10.8°C 90% 1.6 mph WNW2.6 kmh WNW 8.3 mph13.4 kmh 30.00 in1015.9 mb 0.00 in0.0 mm 0.00 in/hr0.0 mm/hr 0.97 in24.6 mm
09:30 PM 54.3°F12.4°C 51.5°F10.8°C 90% 2.2 mph NW3.5 kmh NW 8.3 mph13.4 kmh 30.00 in1015.9 mb 0.00 in0.0 mm 0.00 in/hr0.0 mm/hr 0.97 in24.6 mm
09:35 PM 54.3°F12.4°C 51.5°F10.8°C 90% 4.5 mph NW7.2 kmh NW 8.3 mph13.4 kmh 30.00 in1015.9 mb 0.00 in0.0 mm 0.00 in/hr0.0 mm/hr 0.97 in24.6 mm
09:40 PM 54.5°F12.5°C 51.6°F10.9°C 90% 4.5 mph NW7.2 kmh NW 9.8 mph15.8 kmh 30.00 in1015.9 mb 0.00 in0.0 mm 0.00 in/hr0.0 mm/hr 0.97 in24.6 mm
09:45 PM 54.3°F12.4°C 51.5°F10.8°C 90% 3.1 mph WNW5.0 kmh WNW 9.8 mph15.8 kmh 30.00 in1015.9 mb 0.00 in0.0 mm 0.00 in/hr0.0 mm/hr 0.97 in24.6 mm
09:50 PM 54.3°F12.4°C 51.5°F10.8°C 90% 3.8 mph NW6.1 kmh NW 9.8 mph15.8 kmh 30.01 in1016.3 mb 0.00 in0.0 mm 0.00 in/hr0.0 mm/hr 0.97 in24.6 mm
09:55 PM 54.3°F12.4°C 51.2°F10.7°C 89% 3.8 mph NW6.1 kmh NW 9.2 mph14.8 kmh 30.01 in1016.3 mb 0.00 in0.0 mm 0.00 in/hr0.0 mm/hr 0.97 in24.6 mm
10:00 PM 54.3°F12.4°C 51.2°F10.7°C 89% 2.2 mph NW3.5 kmh NW 9.2 mph14.8 kmh 30.00 in1015.9 mb 0.00 in0.0 mm 0.00 in/hr0.0 mm/hr 0.97 in24.6 mm
10:05 PM 54.3°F12.4°C 51.2°F10.7°C 89% 5.4 mph NW8.7 kmh NW 9.2 mph14.8 kmh 30.01 in1016.3 mb 0.00 in0.0 mm 0.00 in/hr0.0 mm/hr 0.97 in24.6 mm
10:10 PM 54.3°F12.4°C 51.2°F10.7°C 89% 3.1 mph NW5.0 kmh NW 8.3 mph13.4 kmh 30.01 in1016.3 mb 0.00 in0.0 mm 0.00 in/hr0.0 mm/hr 0.97 in24.6 mm
10:15 PM 54.1°F12.3°C 50.7°F10.4°C 88% 2.2 mph NW3.5 kmh NW 8.3 mph13.4 kmh 30.00 in1015.9 mb 0.00 in0.0 mm 0.00 in/hr0.0 mm/hr 0.97 in24.6 mm
10:20 PM 54.1°F12.3°C 50.7°F10.4°C 88% 4.5 mph NW7.2 kmh NW 7.6 mph12.2 kmh 30.01 in1016.3 mb 0.00 in0.0 mm 0.00 in/hr0.0 mm/hr 0.97 in24.6 mm
10:25 PM 54.1°F12.3°C 50.7°F10.4°C 88% 4.5 mph NW7.2 kmh NW 7.6 mph12.2 kmh 30.01 in1016.3 mb 0.00 in0.0 mm 0.00 in/hr0.0 mm/hr 0.97 in24.6 mm
10:30 PM 54.1°F12.3°C 50.7°F10.4°C 88% 3.1 mph NW5.0 kmh NW 8.3 mph13.4 kmh 30.01 in1016.3 mb 0.00 in0.0 mm 0.00 in/hr0.0 mm/hr 0.97 in24.6 mm
10:35 PM 54.3°F12.4°C 50.8°F10.4°C 88% 4.5 mph NW7.2 kmh NW 9.2 mph14.8 kmh 30.00 in1015.9 mb 0.00 in0.0 mm 0.00 in/hr0.0 mm/hr 0.97 in24.6 mm
10:40 PM 54.3°F12.4°C 50.8°F10.4°C 88% 4.5 mph NW7.2 kmh NW 9.2 mph14.8 kmh 30.00 in1015.9 mb 0.00 in0.0 mm 0.00 in/hr0.0 mm/hr 0.97 in24.6 mm
10:45 PM 54.3°F12.4°C 50.5°F10.3°C 87% 3.1 mph NW5.0 kmh NW 9.2 mph14.8 kmh 30.00 in1015.9 mb 0.00 in0.0 mm 0.00 in/hr0.0 mm/hr 0.97 in24.6 mm
10:50 PM 54.3°F12.4°C 50.5°F10.3°C 87% 3.8 mph NW6.1 kmh NW 7.6 mph12.2 kmh 30.00 in1015.9 mb 0.00 in0.0 mm 0.00 in/hr0.0 mm/hr 0.97 in24.6 mm
10:55 PM 54.3°F12.4°C 50.5°F10.3°C 87% 3.1 mph NW5.0 kmh NW 6.9 mph11.1 kmh 30.00 in1015.9 mb 0.00 in0.0 mm 0.00 in/hr0.0 mm/hr 0.97 in24.6 mm
11:00 PM 54.3°F12.4°C 50.5°F10.3°C 87% 4.5 mph NW7.2 kmh NW 7.6 mph12.2 kmh 30.00 in1015.9 mb 0.00 in0.0 mm 0.00 in/hr0.0 mm/hr 0.97 in24.6 mm
11:05 PM 54.3°F12.4°C 50.5°F10.3°C 87% 6.0 mph NW9.7 kmh NW 8.3 mph13.4 kmh 30.00 in1015.9 mb 0.00 in0.0 mm 0.00 in/hr0.0 mm/hr 0.97 in24.6 mm
11:10 PM 54.5°F12.5°C 50.7°F10.4°C 87% 2.2 mph NW3.5 kmh NW 9.2 mph14.8 kmh 30.00 in1015.9 mb 0.00 in0.0 mm 0.00 in/hr0.0 mm/hr 0.97 in24.6 mm
11:15 PM 54.3°F12.4°C 50.5°F10.3°C 87% 4.5 mph NW7.2 kmh NW 9.2 mph14.8 kmh 30.00 in1015.9 mb 0.00 in0.0 mm 0.00 in/hr0.0 mm/hr 0.97 in24.6 mm
11:20 PM 54.3°F12.4°C 50.8°F10.4°C 88% 3.8 mph NW6.1 kmh NW 9.2 mph14.8 kmh 30.00 in1015.9 mb 0.00 in0.0 mm 0.00 in/hr0.0 mm/hr 0.97 in24.6 mm
11:25 PM 54.3°F12.4°C 50.8°F10.4°C 88% 3.1 mph NW5.0 kmh NW 9.2 mph14.8 kmh 30.00 in1015.9 mb 0.00 in0.0 mm 0.00 in/hr0.0 mm/hr 0.97 in24.6 mm
11:30 PM 54.3°F12.4°C 50.8°F10.4°C 88% 3.8 mph NW6.1 kmh NW 9.2 mph14.8 kmh 30.00 in1015.9 mb 0.00 in0.0 mm 0.00 in/hr0.0 mm/hr 0.97 in24.6 mm
11:35 PM 54.3°F12.4°C 50.8°F10.4°C 88% 2.2 mph NW3.5 kmh NW 9.2 mph14.8 kmh 30.00 in1015.9 mb 0.00 in0.0 mm 0.00 in/hr0.0 mm/hr 0.97 in24.6 mm
11:40 PM 54.3°F12.4°C 50.8°F10.4°C 88% 2.2 mph NW3.5 kmh NW 7.6 mph12.2 kmh 30.00 in1015.9 mb 0.00 in0.0 mm 0.00 in/hr0.0 mm/hr 0.97 in24.6 mm
11:45 PM 54.1°F12.3°C 50.7°F10.4°C 88% 3.1 mph NW5.0 kmh NW 6.9 mph11.1 kmh 30.00 in1015.9 mb 0.00 in0.0 mm 0.00 in/hr0.0 mm/hr 0.97 in24.6 mm
11:50 PM 54.0°F12.2°C 50.5°F10.3°C 88% 3.1 mph NW5.0 kmh NW 6.0 mph9.7 kmh 29.99 in1015.6 mb 0.00 in0.0 mm 0.00 in/hr0.0 mm/hr 0.97 in24.6 mm
11:55 PM 53.8°F12.1°C 50.3°F10.2°C 88% 2.2 mph NW3.5 kmh NW 5.4 mph8.7 kmh 30.00 in1015.9 mb 0.00 in0.0 mm 0.00 in/hr0.0 mm/hr 0.97 in24.6 mm